Time;durP1;ratioP1;P1;durP2;ratioP2;P2;SDS_P1;SDS_P2;PMS_P1;PMS_P2;Temp;Humidity;BMP_temperature;BMP_pressure;BME280_temperature;BME280_humidity;BME280_pressure;Samples;Min_cycle;Max_cycle;Signal;HPM_P1;HPM_P2
2022/07/05 00:00:53;;;;;;;3.00;2.38;;;;;;;19.77;45.96;102046.88;4985596;28;113798;-66
2022/07/05 00:03:20;;;;;;;3.85;2.50;;;;;;;19.71;45.95;102047.25;4989342;28;123294;-66
2022/07/05 00:05:48;;;;;;;3.67;2.78;;;;;;;19.66;46.26;102050.19;4988771;28;123606;-66
2022/07/05 00:08:15;;;;;;;4.50;2.67;;;;;;;19.59;46.41;102047.06;4981728;28;114435;-67
2022/07/05 00:10:42;;;;;;;3.70;2.25;;;;;;;19.54;46.70;102035.72;4991133;28;115605;-65
2022/07/05 00:13:10;;;;;;;3.50;2.30;;;;;;;19.51;46.54;102035.06;4989564;28;124059;-65
2022/07/05 00:15:37;;;;;;;4.57;2.55;;;;;;;19.46;46.72;102032.69;4990709;28;123957;-65
2022/07/05 00:18:05;;;;;;;5.13;3.20;;;;;;;19.40;46.66;102050.06;4987868;28;114062;-65
2022/07/05 00:20:32;;;;;;;5.22;2.45;;;;;;;19.37;46.71;102049.38;4991380;28;114030;-65
2022/07/05 00:23:00;;;;;;;3.00;2.30;;;;;;;19.33;46.61;102042.50;4990392;28;124188;-66
2022/07/05 00:25:27;;;;;;;4.22;2.65;;;;;;;19.30;46.72;102042.66;4987198;28;123960;-66
2022/07/05 00:27:54;;;;;;;4.03;2.60;;;;;;;19.24;46.80;102039.41;4988405;28;114280;-66
2022/07/05 00:30:21;;;;;;;3.42;2.40;;;;;;;19.18;46.95;102045.16;4989581;28;112881;-66
2022/07/05 00:32:48;;;;;;;4.57;2.83;;;;;;;19.11;47.03;102033.06;4989482;28;123045;-66
2022/07/05 00:35:15;;;;;;;3.50;2.50;;;;;;;19.04;46.87;102037.09;4984614;28;123972;-66
2022/07/05 00:37:43;;;;;;;3.38;2.65;;;;;;;18.99;47.02;102047.28;4984887;28;113167;-66
2022/07/05 00:40:10;;;;;;;3.40;2.50;;;;;;;18.92;46.86;102044.09;4991452;28;114667;-66
2022/07/05 00:42:37;;;;;;;4.18;2.40;;;;;;;18.86;46.96;102034.59;4986981;28;123053;-66
2022/07/05 00:45:06;;;;;;;4.50;2.70;;;;;;;18.80;47.05;102037.66;4987427;28;122774;-66
2022/07/05 00:47:33;;;;;;;6.97;2.72;;;;;;;18.75;47.28;102037.03;4989119;28;114093;-66
2022/07/05 00:50:01;;;;;;;3.60;2.92;;;;;;;18.70;47.24;102033.75;4989600;28;113001;-66
2022/07/05 00:52:31;;;;;;;4.10;2.90;;;;;;;18.66;47.38;102037.56;4984902;28;124382;-66
2022/07/05 00:54:59;;;;;;;4.75;2.95;;;;;;;18.61;47.44;102045.03;4985866;28;124396;-67
2022/07/05 00:57:26;;;;;;;4.20;2.75;;;;;;;18.57;47.50;102043.50;4990094;28;114536;-66
2022/07/05 00:59:53;;;;;;;4.00;3.00;;;;;;;18.52;47.57;102041.09;4988572;28;115739;-66
2022/07/05 01:02:22;;;;;;;4.47;3.20;;;;;;;18.48;47.71;102040.41;4984343;28;124987;-66
2022/07/05 01:04:50;;;;;;;5.72;3.45;;;;;;;18.44;47.77;102038.88;4973682;28;122939;-66
2022/07/05 01:07:20;;;;;;;6.45;3.72;;;;;;;18.39;47.76;102032.91;4989224;28;114380;-66
2022/07/05 01:09:47;;;;;;;5.60;3.80;;;;;;;18.36;47.78;102040.25;4986219;28;114750;-65
2022/07/05 01:12:16;;;;;;;6.70;4.00;;;;;;;18.31;47.82;102043.22;4990754;28;124511;-66
2022/07/05 01:14:44;;;;;;;5.70;3.67;;;;;;;18.28;48.21;102049.63;4988393;28;124447;-66
2022/07/05 01:17:13;;;;;;;7.35;4.40;;;;;;;18.23;48.29;102051.72;4990194;28;114453;-66
2022/07/05 01:19:40;;;;;;;5.90;4.22;;;;;;;18.20;48.38;102051.03;4987187;28;113690;-66
2022/07/05 01:22:19;;;;;;;4.97;3.97;;;;;;;18.13;48.46;102050.50;4990106;28;123530;-66
2022/07/05 01:24:48;;;;;;;5.43;4.22;;;;;;;18.08;48.68;102052.59;4988285;28;124029;-66
2022/07/05 01:27:16;;;;;;;8.00;4.10;;;;;;;18.05;48.53;102048.28;4987603;28;114607;-66
2022/07/05 01:29:43;;;;;;;5.93;3.78;;;;;;;18.01;48.52;102041.38;4988864;28;114885;-66
2022/07/05 01:32:10;;;;;;;5.80;3.95;;;;;;;17.98;48.63;102041.53;4988695;28;124774;-66
2022/07/05 01:34:39;;;;;;;5.15;3.60;;;;;;;17.93;48.60;102038.25;4988194;28;124207;-66
2022/07/05 01:37:08;;;;;;;6.70;3.60;;;;;;;17.90;48.57;102043.78;4987275;28;113495;-66
2022/07/05 01:39:36;;;;;;;4.03;3.42;;;;;;;17.86;48.69;102042.25;4989819;28;113819;-66
2022/07/05 01:42:04;;;;;;;4.57;3.20;;;;;;;17.79;48.71;102046.19;4987433;28;123376;-66
2022/07/05 01:44:31;;;;;;;4.78;3.50;;;;;;;17.69;48.69;102041.34;4988340;28;123821;-66
2022/07/05 01:47:04;;;;;;;5.07;3.20;;;;;;;17.62;48.99;102053.34;4989733;28;114304;-66
2022/07/05 01:49:43;;;;;;;4.95;3.75;;;;;;;17.53;48.93;102040.44;4989954;28;115088;-66
2022/07/05 01:52:11;;;;;;;5.68;3.88;;;;;;;17.47;49.09;102051.50;4986108;28;123899;-66
2022/07/05 01:54:40;;;;;;;5.60;4.15;;;;;;;17.43;49.17;102055.31;4986189;28;123018;-66
2022/07/05 01:57:09;;;;;;;4.78;3.97;;;;;;;17.40;48.98;102050.13;4989746;28;114612;-66
2022/07/05 01:59:37;;;;;;;4.88;3.97;;;;;;;17.37;49.01;102044.94;4988397;28;114500;-66
2022/07/05 02:02:05;;;;;;;4.88;3.72;;;;;;;17.34;49.36;102042.41;4988643;28;124104;-66
2022/07/05 02:04:36;;;;;;;5.25;3.80;;;;;;;17.29;49.40;102043.53;4988740;28;124352;-66
2022/07/05 02:07:08;;;;;;;4.90;3.67;;;;;;;17.25;49.29;102041.97;4988396;28;113338;-65
2022/07/05 02:09:37;;;;;;;6.13;3.83;;;;;;;17.21;49.37;102035.03;4988792;28;113135;-66
2022/07/05 02:12:05;;;;;;;4.43;3.40;;;;;;;17.18;49.43;102035.22;4987937;28;123721;-66
2022/07/05 02:14:33;;;;;;;4.15;3.75;;;;;;;17.15;49.51;102029.16;4990479;28;124729;-65
2022/07/05 02:17:02;;;;;;;6.65;4.50;;;;;;;17.11;49.61;102039.16;4987814;28;113266;-66
2022/07/05 02:19:31;;;;;;;6.20;4.90;;;;;;;17.08;49.94;102025.94;4986377;28;113257;-66
2022/07/05 02:21:58;;;;;;;8.82;4.72;;;;;;;17.08;50.17;102033.97;4989487;28;123343;-66
2022/07/05 02:24:26;;;;;;;8.27;4.45;;;;;;;17.08;50.25;102036.66;4988202;28;123267;-66
2022/07/05 02:27:01;;;;;;;6.35;4.75;;;;;;;17.06;50.50;102033.19;4988077;28;116758;-66
2022/07/05 02:29:28;;;;;;;6.80;4.90;;;;;;;17.05;50.53;102035.00;4986895;28;113126;-66
2022/07/05 02:31:57;;;;;;;4.90;4.00;;;;;;;17.03;50.30;102030.69;4972622;28;124102;-66
2022/07/05 02:34:26;;;;;;;8.20;4.78;;;;;;;17.00;50.28;102041.56;4988880;28;123147;-66
2022/07/05 02:36:55;;;;;;;4.90;3.88;;;;;;;16.95;49.98;102043.59;4988551;28;114646;-66
2022/07/05 02:39:22;;;;;;;6.03;3.90;;;;;;;16.86;50.11;102043.16;4987472;28;115732;-66
2022/07/05 02:41:51;;;;;;;5.82;4.05;;;;;;;16.80;50.28;102046.13;4987214;28;123743;-66
2022/07/05 02:44:19;;;;;;;7.15;4.60;;;;;;;16.75;50.58;102048.16;4988797;28;122490;-66
2022/07/05 02:46:49;;;;;;;5.35;4.40;;;;;;;16.72;50.54;102048.31;4986986;28;113423;-66
2022/07/05 02:49:17;;;;;;;5.25;4.18;;;;;;;16.71;50.49;102051.94;4988462;28;113367;-66
2022/07/05 02:51:44;;;;;;;4.80;3.92;;;;;;;16.67;50.31;102045.88;4987222;28;124048;-66
2022/07/05 02:54:13;;;;;;;6.47;4.45;;;;;;;16.62;50.52;102055.09;4988900;28;122982;-66
2022/07/05 02:56:41;;;;;;;4.93;4.00;;;;;;;16.58;50.42;102053.53;4987065;28;114483;-66
2022/07/05 02:59:11;;;;;;;5.05;4.13;;;;;;;16.54;50.67;102063.50;4975144;28;113610;-66
2022/07/05 03:01:39;;;;;;;8.20;4.25;;;;;;;16.48;50.91;102062.00;4985350;28;123720;-66
2022/07/05 03:04:11;;;;;;;9.15;4.88;;;;;;;16.44;50.77;102063.06;4984110;28;124035;-66
2022/07/05 03:06:45;;;;;;;6.57;4.57;;;;;;;16.41;50.74;102063.25;4987653;28;113647;-66
2022/07/05 03:09:18;;;;;;;6.10;4.38;;;;;;;16.39;50.90;102065.13;4988095;28;116200;-66
2022/07/05 03:11:47;;;;;;;7.50;4.63;;;;;;;16.37;50.91;102059.00;4983402;28;124609;-66
2022/07/05 03:14:14;;;;;;;6.60;4.43;;;;;;;16.34;51.19;102051.13;4985433;28;123026;-66
2022/07/05 03:16:44;;;;;;;8.05;4.97;;;;;;;16.33;51.33;102052.06;4987794;28;114061;-66
2022/07/05 03:19:12;;;;;;;9.38;4.75;;;;;;;16.32;51.44;102061.03;4985633;28;113039;-67
2022/07/05 03:21:39;;;;;;;5.82;3.95;;;;;;;16.30;51.34;102062.91;4984954;28;124755;-66
2022/07/05 03:24:07;;;;;;;5.68;4.10;;;;;;;16.25;51.18;102064.94;4987205;28;123465;-66
2022/07/05 03:26:35;;;;;;;7.57;4.28;;;;;;;16.19;51.10;102066.13;4984798;28;114284;-66
2022/07/05 03:29:02;;;;;;;6.15;4.97;;;;;;;16.13;51.25;102063.75;4987807;28;114760;-66
2022/07/05 03:31:30;;;;;;;5.32;3.80;;;;;;;16.10;51.30;102072.75;4984612;28;123246;-66
2022/07/05 03:33:59;;;;;;;6.00;4.63;;;;;;;16.05;51.34;102064.13;4987134;28;122920;-66
2022/07/05 03:36:27;;;;;;;6.63;4.50;;;;;;;16.03;51.36;102071.34;4986668;28;114283;-68
2022/07/05 03:38:54;;;;;;;9.07;5.35;;;;;;;16.01;51.54;102067.00;4991135;28;112878;-67
2022/07/05 03:41:21;;;;;;;6.38;4.70;;;;;;;15.98;51.65;102067.16;4989452;28;124522;-68
2022/07/05 03:43:50;;;;;;;7.50;4.95;;;;;;;15.95;51.72;102078.84;4992524;28;123717;-68
2022/07/05 03:46:17;;;;;;;6.63;4.95;;;;;;;15.95;52.00;102073.50;4990091;28;113337;-68
2022/07/05 03:48:45;;;;;;;7.03;5.00;;;;;;;15.94;52.25;102066.44;4989542;28;113040;-68
2022/07/05 03:51:16;;;;;;;7.40;5.70;;;;;;;15.98;52.34;102078.72;4988698;28;122951;-68
2022/07/05 03:53:44;;;;;;;6.90;5.25;;;;;;;16.02;52.33;102082.97;4991646;28;123581;-68
2022/07/05 03:56:11;;;;;;;7.25;5.60;;;;;;;16.04;52.53;102081.09;4992400;28;113905;-68
2022/07/05 03:58:38;;;;;;;7.88;6.25;;;;;;;16.08;52.62;102085.34;4992357;28;114240;-68
2022/07/05 04:01:06;;;;;;;9.45;6.07;;;;;;;16.08;52.82;102085.34;4991379;28;123690;-66
2022/07/05 04:03:34;;;;;;;9.32;6.38;;;;;;;16.11;52.92;102095.91;4988465;28;122980;-68
2022/07/05 04:06:09;;;;;;;7.93;6.18;;;;;;;16.14;52.96;102101.09;4988472;28;113202;-68
2022/07/05 04:08:37;;;;;;;9.75;6.45;;;;;;;16.18;53.02;102095.59;4990451;28;113228;-66
2022/07/05 04:11:05;;;;;;;10.00;6.70;;;;;;;16.21;53.21;102090.09;4988350;28;123592;-68
2022/07/05 04:13:34;;;;;;;12.35;7.20;;;;;;;16.26;53.48;102098.78;4991499;28;122905;-68
2022/07/05 04:16:01;;;;;;;10.05;7.03;;;;;;;16.30;53.42;102095.00;4991439;28;114374;-66
2022/07/05 04:18:29;;;;;;;9.77;7.53;;;;;;;16.36;53.57;102102.72;4990223;28;113230;-66
2022/07/05 04:20:58;;;;;;;8.07;6.93;;;;;;;16.41;53.61;102103.34;4990775;28;123323;-66
2022/07/05 04:23:25;;;;;;;10.90;6.43;;;;;;;16.47;53.76;102103.06;4990260;28;123487;-66
2022/07/05 04:25:52;;;;;;;8.43;6.10;;;;;;;16.55;53.80;102105.34;4989494;28;114321;-66
2022/07/05 04:28:31;;;;;;;9.50;6.45;;;;;;;16.61;53.79;102093.47;4987855;28;116532;-66
2022/07/05 04:30:59;;;;;;;14.93;9.18;;;;;;;16.68;54.05;102105.59;4988596;28;123721;-66
2022/07/05 04:33:30;;;;;;;10.77;8.85;;;;;;;16.74;54.21;102099.91;4988368;28;123794;-66
2022/07/05 04:35:58;;;;;;;13.93;9.85;;;;;;;16.82;54.37;102097.78;4991173;28;113449;-66
2022/07/05 04:38:26;;;;;;;15.27;10.48;;;;;;;16.90;54.63;102100.91;4990002;28;113110;-66
2022/07/05 04:40:55;;;;;;;14.65;10.18;;;;;;;17.01;54.57;102096.78;4987955;28;123577;-66
2022/07/05 04:43:24;;;;;;;16.23;10.27;;;;;;;17.08;54.74;102098.22;4991315;28;122967;-66
2022/07/05 04:45:51;;;;;;;15.48;11.20;;;;;;;17.17;54.67;102103.09;4990484;28;113422;-66
2022/07/05 04:48:24;;;;;;;14.73;11.35;;;;;;;17.26;54.70;102097.25;4986598;28;112971;-66
2022/07/05 04:50:51;;;;;;;17.23;11.02;;;;;;;17.39;54.90;102107.31;4986923;28;125967;-66
2022/07/05 04:53:18;;;;;;;16.10;11.02;;;;;;;17.46;54.84;102104.22;4987751;28;124037;-66
2022/07/05 04:55:46;;;;;;;16.73;11.40;;;;;;;17.55;54.80;102108.19;4989009;28;114884;-66
2022/07/05 04:58:13;;;;;;;13.63;11.18;;;;;;;17.64;54.80;102107.69;4988827;28;114188;-66
2022/07/05 05:00:40;;;;;;;16.25;11.18;;;;;;;17.71;54.66;102103.75;4989607;28;123069;-66
2022/07/05 05:03:07;;;;;;;16.55;11.80;;;;;;;17.80;54.40;102096.13;4988466;28;123866;-66
2022/07/05 05:05:34;;;;;;;15.27;11.68;;;;;;;17.87;54.59;102094.88;4988507;28;115064;-66
2022/07/05 05:08:01;;;;;;;16.13;12.07;;;;;;;17.95;54.60;102094.44;4989175;28;114990;-66
2022/07/05 05:10:29;;;;;;;16.92;12.00;;;;;;;18.03;54.55;102098.44;4987356;28;124379;-66
2022/07/05 05:12:56;;;;;;;16.27;11.63;;;;;;;18.12;54.55;102101.53;4988804;28;123814;-67
2022/07/05 05:15:23;;;;;;;17.80;11.25;;;;;;;18.20;54.63;102104.66;4990391;28;114472;-67
2022/07/05 05:17:50;;;;;;;14.88;11.60;;;;;;;18.25;54.42;102102.56;4989617;28;113919;-66
2022/07/05 05:20:18;;;;;;;16.50;11.98;;;;;;;18.33;54.39;102105.69;4989502;28;123900;-64
2022/07/05 05:22:46;;;;;;;17.23;11.82;;;;;;;18.41;54.44;102113.28;4988937;28;124944;-64
2022/07/05 05:25:14;;;;;;;15.27;11.73;;;;;;;18.48;54.29;102118.22;4989155;28;114069;-64
2022/07/05 05:27:46;;;;;;;16.13;12.45;;;;;;;18.56;54.42;102114.22;4988274;28;115149;-64
2022/07/05 05:30:17;;;;;;;15.45;12.35;;;;;;;18.66;54.37;102118.09;4987624;28;123988;-64
2022/07/05 05:32:45;;;;;;;17.95;12.57;;;;;;;18.74;54.27;102110.47;4983971;28;125274;-65
2022/07/05 05:35:12;;;;;;;16.52;12.80;;;;;;;18.82;54.23;102118.94;4985762;28;114334;-65
2022/07/05 05:37:53;;;;;;;19.50;13.07;;;;;;;18.92;54.11;102129.13;4989086;28;113025;-65
2022/07/05 05:40:22;;;;;;;14.95;12.07;;;;;;;19.00;54.05;102121.47;4988395;28;122970;-66
2022/07/05 05:42:51;;;;;;;16.80;12.52;;;;;;;19.10;54.03;102111.91;4987199;28;122944;-65
2022/07/05 05:45:19;;;;;;;17.70;12.75;;;;;;;19.18;53.77;102115.00;4988405;28;114664;-65
2022/07/05 05:47:58;;;;;;;20.30;12.82;;;;;;;19.28;53.99;102114.44;4983287;28;114007;-65
2022/07/05 05:50:27;;;;;;;16.38;11.80;;;;;;;19.36;53.85;102115.66;4989923;28;124249;-65
2022/07/05 05:52:55;;;;;;;17.33;11.85;;;;;;;19.45;53.76;102119.63;4981384;28;123950;-65
2022/07/05 05:55:25;;;;;;;15.77;11.98;;;;;;;19.52;53.55;102107.53;4987310;28;115160;-65
2022/07/05 05:57:53;;;;;;;16.27;12.52;;;;;;;19.61;53.54;102123.09;4984489;28;114735;-65
2022/07/05 06:00:21;;;;;;;21.58;12.30;;;;;;;19.69;53.44;102124.44;4990299;28;124076;-65
2022/07/05 06:02:50;;;;;;;15.02;11.52;;;;;;;19.77;53.36;102127.50;4987073;28;124164;-65
2022/07/05 06:05:17;;;;;;;20.20;12.98;;;;;;;19.83;53.19;102138.75;4986489;28;114994;-65
2022/07/05 06:07:53;;;;;;;15.35;11.88;;;;;;;19.91;53.56;102134.69;4987153;28;113980;-65
2022/07/05 06:10:29;;;;;;;16.83;12.52;;;;;;;20.00;53.50;102140.38;4979309;28;123906;-65
2022/07/05 06:12:59;;;;;;;17.52;12.25;;;;;;;20.09;53.46;102138.88;4986768;28;124120;-65
2022/07/05 06:15:26;;;;;;;17.60;12.05;;;;;;;20.18;53.20;102148.19;4986068;28;114438;-66
2022/07/05 06:17:53;;;;;;;16.60;13.13;;;;;;;20.27;53.33;102146.72;4989246;28;114158;-65
2022/07/05 06:20:28;;;;;;;17.90;12.63;;;;;;;20.34;53.09;102143.56;4988573;28;123469;-65
2022/07/05 06:22:56;;;;;;;17.37;12.20;;;;;;;20.42;53.27;102146.59;4984472;28;123904;-66
2022/07/05 06:25:23;;;;;;;20.23;12.10;;;;;;;20.52;53.16;102151.38;4987709;28;115066;-66
2022/07/05 06:27:56;;;;;;;17.60;11.52;;;;;;;20.62;53.27;102152.50;4986279;28;113130;-66
2022/07/05 06:30:25;;;;;;;17.45;11.57;;;;;;;20.71;52.90;102151.88;4989561;28;124035;-66
2022/07/05 06:32:53;;;;;;;15.32;11.57;;;;;;;20.80;52.85;102148.59;4985985;28;123912;-65
2022/07/05 06:35:22;;;;;;;15.20;11.00;;;;;;;20.91;52.92;102144.31;4986474;28;114086;-66
2022/07/05 06:37:53;;;;;;;17.77;11.05;;;;;;;21.02;52.78;102152.53;4986041;28;113857;-66
2022/07/05 06:40:23;;;;;;;13.63;9.60;;;;;;;21.12;52.64;102161.69;4990053;28;124295;-66
2022/07/05 06:42:53;;;;;;;14.98;10.55;;;;;;;21.21;52.42;102157.50;4989000;28;123724;-66
2022/07/05 06:45:24;;;;;;;13.18;9.68;;;;;;;21.32;52.56;102154.03;4986240;28;114354;-66
2022/07/05 06:48:20;;;;;;;13.07;10.05;;;;;;;21.45;52.27;102160.31;4987465;28;114851;-66
2022/07/05 06:50:47;;;;;;;14.15;10.07;;;;;;;21.58;52.40;102158.50;4977993;28;124286;-66
2022/07/05 06:53:15;;;;;;;15.95;10.68;;;;;;;21.67;52.12;102161.53;4985888;28;123730;-66
2022/07/05 06:55:44;;;;;;;16.92;10.57;;;;;;;21.76;51.90;102166.25;4987750;28;114245;-66
2022/07/05 06:58:18;;;;;;;13.95;9.75;;;;;;;21.85;51.54;102162.91;4985651;28;114032;-66
2022/07/05 07:00:45;;;;;;;10.68;8.63;;;;;;;21.94;51.20;102155.97;4982930;28;124335;-66
2022/07/05 07:03:32;;;;;;;12.80;8.60;;;;;;;22.04;51.04;102158.84;4990249;28;124359;-66
2022/07/05 07:06:20;;;;;;;10.85;8.35;;;;;;;22.13;50.71;102174.38;4988745;28;114404;-66
2022/07/05 07:11:33;;;;;;;10.60;8.07;;;;;;;22.24;50.43;102171.75;4987288;28;124769;-65
2022/07/05 07:14:01;;;;;;;11.38;8.65;;;;;;;22.32;50.21;102169.41;4987171;28;124665;-64
2022/07/05 07:16:28;;;;;;;11.52;8.13;;;;;;;22.41;50.10;102169.69;4981226;28;115129;-65
2022/07/05 07:18:56;;;;;;;11.68;8.40;;;;;;;22.48;49.52;102162.84;4987148;28;113755;-65
2022/07/05 07:21:41;;;;;;;10.98;7.43;;;;;;;22.55;49.29;102164.13;4991010;28;123945;-65
2022/07/05 07:24:09;;;;;;;9.48;7.50;;;;;;;22.61;49.21;102163.66;4989712;28;124043;-65
2022/07/05 07:27:19;;;;;;;12.32;8.27;;;;;;;22.67;49.03;102168.59;4982107;28;114783;-65
2022/07/05 07:29:27;;;;;;;9.95;7.72;;;;;;;22.73;48.82;102170.84;4982583;28;112985;-65
2022/07/05 07:31:55;;;;;;;12.20;8.00;;;;;;;22.85;48.96;102181.69;4991985;28;124155;-65
2022/07/05 07:34:23;;;;;;;10.95;8.15;;;;;;;23.01;49.06;102182.22;4989835;28;123875;-65
2022/07/05 07:36:51;;;;;;;9.57;6.93;;;;;;;23.19;48.81;102179.13;4977539;28;115804;-65
2022/07/05 07:39:19;;;;;;;8.85;6.70;;;;;;;23.38;48.25;102168.63;4985246;28;115276;-65
2022/07/05 07:41:46;;;;;;;8.07;5.43;;;;;;;23.54;47.86;102167.41;4987067;28;124418;-65
2022/07/05 07:44:14;;;;;;;7.72;5.25;;;;;;;23.66;47.75;102177.25;4989936;28;123203;-65
2022/07/05 07:46:41;;;;;;;7.88;5.53;;;;;;;23.78;47.11;102176.25;4978247;28;114315;-65
2022/07/05 07:49:10;;;;;;;7.13;5.65;;;;;;;23.89;46.78;102179.00;4991219;28;113788;-65
2022/07/05 07:51:39;;;;;;;7.13;5.20;;;;;;;23.96;46.88;102167.66;4972057;28;123938;-65
2022/07/05 07:54:07;;;;;;;9.15;5.30;;;;;;;24.05;46.57;102172.34;4983342;28;123716;-65
2022/07/05 07:56:34;;;;;;;8.43;5.00;;;;;;;24.15;46.30;102165.22;4976183;28;114322;-65
2022/07/05 07:59:02;;;;;;;5.88;4.10;;;;;;;24.28;45.98;102174.03;4991360;28;114500;-65
2022/07/05 08:01:29;;;;;;;7.45;4.60;;;;;;;24.42;46.12;102174.75;4985992;28;123863;-65
2022/07/05 08:03:56;;;;;;;7.03;5.20;;;;;;;24.55;45.72;102170.06;4987123;28;123977;-65
2022/07/05 08:06:23;;;;;;;7.43;4.57;;;;;;;24.65;45.71;102176.41;4985020;28;114169;-64
2022/07/05 08:08:51;;;;;;;9.20;5.07;;;;;;;24.77;45.34;102179.06;4990859;28;113057;-65
2022/07/05 08:11:18;;;;;;;6.57;4.10;;;;;;;24.87;45.33;102180.88;4990533;28;124891;-65
2022/07/05 08:13:45;;;;;;;6.25;4.30;;;;;;;24.95;44.84;102177.53;4974016;28;123803;-65
2022/07/05 08:16:12;;;;;;;4.82;3.20;;;;;;;25.01;44.77;102179.69;4970758;28;114565;-65
2022/07/05 08:21:31;;;;;;;5.95;4.22;;;;;;;25.14;44.36;102175.94;4979694;28;124039;-65
2022/07/05 08:24:00;;;;;;;5.55;4.00;;;;;;;25.21;44.02;102177.16;4989696;28;124269;-65
2022/07/05 08:26:28;;;;;;;7.60;4.20;;;;;;;25.23;43.85;102180.63;4989693;28;115591;-65
2022/07/05 08:28:58;;;;;;;8.02;4.50;;;;;;;25.23;43.54;102175.19;4990709;28;115057;-67
2022/07/05 08:31:38;;;;;;;6.07;4.82;;;;;;;25.25;43.70;102175.91;4991629;28;124599;-65
2022/07/05 08:34:05;;;;;;;6.07;4.60;;;;;;;25.26;43.74;102180.38;4989608;28;123732;-65
2022/07/05 08:36:32;;;;;;;8.00;4.45;;;;;;;25.31;43.60;102175.38;4990348;28;114957;-65
2022/07/05 08:39:00;;;;;;;5.40;4.65;;;;;;;25.36;43.59;102180.41;4989803;28;114156;-65
2022/07/05 08:41:29;;;;;;;6.40;4.20;;;;;;;25.41;44.11;102178.13;4990354;28;124055;-65
2022/07/05 08:43:59;;;;;;;5.85;4.25;;;;;;;25.52;43.79;102171.78;4990313;28;124361;-65
2022/07/05 08:46:30;;;;;;;6.88;4.30;;;;;;;25.64;43.88;102174.28;4969944;28;114283;-65
2022/07/05 08:49:04;;;;;;;7.47;3.90;;;;;;;25.79;44.01;102185.63;4982709;28;114393;-65
2022/07/05 08:51:40;;;;;;;6.90;4.43;;;;;;;25.96;43.28;102172.47;4969519;28;124538;-65
2022/07/05 08:54:12;;;;;;;5.35;3.90;;;;;;;26.10;43.27;102169.34;4982839;28;124222;-65
2022/07/05 08:56:44;;;;;;;6.43;4.30;;;;;;;26.21;43.10;102166.50;4989238;28;114681;-66
2022/07/05 08:59:31;;;;;;;5.70;4.30;;;;;;;26.38;42.91;102177.69;4990453;28;113788;-65
2022/07/05 09:02:01;;;;;;;7.10;4.90;;;;;;;26.44;42.51;102165.41;4988028;28;124122;-65
2022/07/05 09:04:37;;;;;;;6.97;4.57;;;;;;;26.52;42.77;102163.72;4979808;28;123986;-65
2022/07/05 09:07:07;;;;;;;7.32;4.78;;;;;;;26.60;42.26;102166.59;4988225;28;114230;-65
2022/07/05 09:09:42;;;;;;;5.10;4.20;;;;;;;26.69;41.55;102174.88;4986392;28;114185;-65
2022/07/05 09:12:14;;;;;;;4.75;3.80;;;;;;;26.72;41.36;102174.63;4987579;28;124591;-65
2022/07/05 09:14:54;;;;;;;5.60;3.75;;;;;;;26.80;41.80;102172.03;4973417;28;123657;-65
2022/07/05 09:17:22;;;;;;;7.72;4.07;;;;;;;26.92;41.57;102181.78;4983230;28;115219;-65
2022/07/05 09:20:07;;;;;;;7.75;4.18;;;;;;;27.04;41.15;102178.91;4981866;28;116154;-65
2022/07/05 09:22:45;;;;;;;6.72;4.07;;;;;;;27.09;40.84;102179.34;4990329;28;124327;-65
2022/07/05 09:25:18;;;;;;;9.38;3.85;;;;;;;27.10;40.62;102178.31;4979417;28;123961;-65
2022/07/05 09:27:51;;;;;;;7.05;3.78;;;;;;;27.08;40.36;102181.16;4980189;28;113258;-65
2022/07/05 09:30:28;;;;;;;4.90;3.47;;;;;;;27.04;40.40;102176.19;4985327;28;114312;-65
2022/07/05 09:33:03;;;;;;;6.97;3.92;;;;;;;27.02;40.13;102180.91;4974724;28;124241;-65
2022/07/05 09:35:32;;;;;;;5.72;3.03;;;;;;;26.97;40.23;102174.03;4981907;28;125422;-65
2022/07/05 09:37:59;;;;;;;5.63;2.95;;;;;;;26.97;40.09;102179.50;4984836;28;114100;-65
2022/07/05 09:40:26;;;;;;;5.30;3.28;;;;;;;26.94;39.84;102178.91;4985168;28;113431;-65
2022/07/05 09:43:10;;;;;;;3.70;2.80;;;;;;;26.85;39.30;102175.19;4982910;28;124150;-65
2022/07/05 09:45:37;;;;;;;4.63;2.60;;;;;;;26.80;39.80;102166.59;4969016;28;123921;-65
2022/07/05 09:48:07;;;;;;;4.40;1.90;;;;;;;26.76;38.54;102176.88;4989387;28;114066;-65
2022/07/05 09:51:07;;;;;;;5.50;2.10;;;;;;;26.63;38.57;102175.47;4988403;28;114824;-65
2022/07/05 09:53:58;;;;;;;3.38;1.77;;;;;;;26.56;38.33;102181.44;4980436;28;125864;-65
2022/07/05 09:56:29;;;;;;;3.53;1.70;;;;;;;26.53;38.66;102165.41;4984429;28;123694;-65
2022/07/05 09:59:21;;;;;;;3.35;1.85;;;;;;;26.63;39.45;102170.88;4978289;28;114351;-65
2022/07/05 10:01:50;;;;;;;4.18;2.40;;;;;;;26.75;38.92;102174.34;4975721;28;114653;-65
2022/07/05 10:04:18;;;;;;;3.25;2.40;;;;;;;26.84;38.94;102168.00;4980250;28;123936;-65
2022/07/05 10:06:46;;;;;;;3.90;2.00;;;;;;;26.92;38.14;102176.34;4983009;28;123913;-65
2022/07/05 10:09:14;;;;;;;4.28;2.13;;;;;;;26.98;38.18;102175.75;4988391;28;115223;-65
2022/07/05 10:11:45;;;;;;;5.13;2.53;;;;;;;27.00;37.39;102173.75;4991501;28;114853;-65
2022/07/05 10:14:18;;;;;;;3.25;2.00;;;;;;;26.95;37.27;102170.59;4954204;28;123132;-65
2022/07/05 10:16:51;;;;;;;2.53;1.70;;;;;;;26.91;37.61;102169.16;4967143;28;124228;-65
2022/07/05 10:19:21;;;;;;;4.07;1.70;;;;;;;26.87;37.20;102173.19;4976062;28;114173;-65
2022/07/05 10:21:49;;;;;;;4.18;2.00;;;;;;;26.84;36.91;102173.47;4973871;28;113045;-65
2022/07/05 10:24:37;;;;;;;5.22;1.70;;;;;;;26.77;37.03;102166.91;4968664;28;123919;-65
2022/07/05 10:27:07;;;;;;;3.78;1.88;;;;;;;26.75;37.50;102168.91;4983748;28;124500;-65
2022/07/05 10:29:36;;;;;;;4.38;1.90;;;;;;;26.73;37.03;102165.44;4975905;28;114669;-65
2022/07/05 10:32:07;;;;;;;2.75;1.70;;;;;;;26.69;37.53;102173.06;4990984;28;114297;-65
2022/07/05 10:34:35;;;;;;;4.40;2.20;;;;;;;26.67;37.33;102168.75;4972906;28;123775;-65
2022/07/05 10:37:25;;;;;;;2.70;1.80;;;;;;;26.64;37.76;102166.31;4986687;28;124191;-65
2022/07/05 10:39:54;;;;;;;5.43;2.20;;;;;;;26.63;37.56;102164.59;4989651;28;114546;-65
2022/07/05 10:42:24;;;;;;;4.35;2.00;;;;;;;26.65;38.19;102162.59;4975029;28;113842;-67
2022/07/05 10:44:51;;;;;;;3.33;2.05;;;;;;;26.72;38.26;102167.31;4977533;28;124118;-66
2022/07/05 10:47:19;;;;;;;3.38;1.92;;;;;;;26.85;38.45;102169.75;4974282;28;124257;-67
2022/07/05 10:50:00;;;;;;;4.47;2.30;;;;;;;27.02;38.70;102164.59;4974093;28;114170;-67
2022/07/05 10:52:28;;;;;;;6.32;2.15;;;;;;;27.14;37.73;102157.97;4977026;28;114096;-66
2022/07/05 10:55:16;;;;;;;3.63;1.90;;;;;;;27.22;37.55;102160.84;4981439;28;124043;-67
2022/07/05 10:57:43;;;;;;;4.18;2.08;;;;;;;27.28;37.42;102159.44;4983950;28;123794;-66
2022/07/05 11:00:11;;;;;;;3.17;1.85;;;;;;;27.30;36.86;102163.72;4989416;28;115001;-67
2022/07/05 11:02:38;;;;;;;3.65;1.92;;;;;;;27.26;36.27;102162.28;4987944;28;115344;-67
2022/07/05 11:05:06;;;;;;;3.22;1.70;;;;;;;27.16;35.92;102161.41;4974165;28;125207;-67
2022/07/05 11:07:59;;;;;;;3.17;1.73;;;;;;;27.05;36.05;102169.72;4970018;28;123614;-67
2022/07/05 11:10:26;;;;;;;6.70;1.73;;;;;;;26.95;35.95;102170.59;4986913;28;114328;-67
2022/07/05 11:12:53;;;;;;;3.28;2.00;;;;;;;26.87;36.21;102167.75;4978962;28;113810;-68
2022/07/05 11:15:20;;;;;;;5.82;2.17;;;;;;;26.80;36.23;102161.16;4984380;28;124130;-67
2022/07/05 11:17:48;;;;;;;6.53;2.05;;;;;;;26.76;36.53;102165.16;4982575;28;124227;-67
2022/07/05 11:20:30;;;;;;;4.43;2.35;;;;;;;26.76;37.51;102159.72;4984055;28;114070;-66
2022/07/05 11:23:08;;;;;;;4.15;1.95;;;;;;;26.85;37.38;102169.75;4975889;28;114211;-67
2022/07/05 11:25:48;;;;;;;3.97;2.38;;;;;;;26.86;37.37;102168.75;4986041;28;124097;-67
2022/07/05 11:28:18;;;;;;;3.33;2.10;;;;;;;26.79;36.98;102165.75;4965731;28;123534;-67
2022/07/05 11:30:55;;;;;;;3.08;2.22;;;;;;;26.73;37.10;102165.44;4970604;28;114120;-67
2022/07/05 11:33:42;;;;;;;3.17;2.30;;;;;;;26.58;37.09;102163.13;4988018;28;114154;-67